Time;durP1;ratioP1;P1;durP2;ratioP2;P2;SDS_P1;SDS_P2;PMS_P1;PMS_P2;Temp;Humidity;BMP_temperature;BMP_pressure;BME280_temperature;BME280_humidity;BME280_pressure;Samples;Min_cycle;Max_cycle;Signal;HPM_P1;HPM_P2
2023/08/27 00:00:43;;;;;;;0.20;0.20;;;;;;;;;;5033887;28;20029;-70
2023/08/27 00:03:09;;;;;;;0.20;0.20;;;;;;;;;;5033834;28;20038;-71
2023/08/27 00:05:44;;;;;;;0.20;0.20;;;;;;;;;;5032909;28;20029;-69
2023/08/27 00:08:10;;;;;;;0.30;0.30;;;;;;;;;;5033552;28;20040;-71
2023/08/27 00:10:36;;;;;;;0.20;0.20;;;;;;;;;;4986292;28;20030;-71
2023/08/27 00:13:01;;;;;;;0.20;0.20;;;;;;;;;;5029683;28;20033;-72
2023/08/27 00:15:27;;;;;;;0.40;0.40;;;;;;;;;;5033787;28;20029;-71
2023/08/27 00:17:53;;;;;;;0.30;0.30;;;;;;;;;;5031458;28;20036;-72
2023/08/27 00:20:19;;;;;;;0.20;0.20;;;;;;;;;;5032358;28;20477;-71
2023/08/27 00:22:45;;;;;;;0.30;0.30;;;;;;;;;;5015768;28;20025;-70
2023/08/27 00:25:10;;;;;;;0.20;0.20;;;;;;;;;;5032680;28;20037;-71
2023/08/27 00:27:36;;;;;;;0.20;0.20;;;;;;;;;;5033195;28;20124;-72
2023/08/27 00:30:04;;;;;;;0.20;0.20;;;;;;;;;;5033547;28;20431;-72
2023/08/27 00:32:33;;;;;;;0.20;0.20;;;;;;;;;;5032841;28;20041;-70
2023/08/27 00:34:59;;;;;;;0.20;0.20;;;;;;;;;;5015379;28;20029;-71
2023/08/27 00:37:24;;;;;;;0.20;0.20;;;;;;;;;;5032599;28;20048;-71
2023/08/27 00:39:50;;;;;;;0.30;0.30;;;;;;;;;;5033365;28;20041;-70
2023/08/27 00:42:16;;;;;;;0.20;0.20;;;;;;;;;;5015425;28;20079;-72
2023/08/27 00:44:42;;;;;;;0.20;0.20;;;;;;;;;;5033453;28;20430;-70
2023/08/27 00:47:08;;;;;;;0.20;0.20;;;;;;;;;;5032630;28;20041;-71
2023/08/27 00:49:34;;;;;;;0.20;0.20;;;;;;;;;;5015325;28;20374;-72
2023/08/27 00:52:01;;;;;;;0.20;0.20;;;;;;;;;;5033065;28;20065;-71
2023/08/27 00:54:27;;;;;;;0.20;0.20;;;;;;;;;;4999386;28;20037;-71
2023/08/27 00:56:53;;;;;;;0.20;0.20;;;;;;;;;;5033221;28;20038;-70
2023/08/27 00:59:19;;;;;;;0.30;0.30;;;;;;;;;;5015372;28;20041;-70
2023/08/27 01:01:45;;;;;;;0.20;0.20;;;;;;;;;;5015370;28;20057;-70
2023/08/27 01:04:11;;;;;;;0.20;0.20;;;;;;;;;;5015226;28;20122;-71
2023/08/27 01:06:37;;;;;;;0.22;0.22;;;;;;;;;;5032760;28;20487;-70
2023/08/27 01:09:06;;;;;;;0.20;0.20;;;;;;;;;;5013922;28;20033;-72
2023/08/27 01:11:36;;;;;;;0.20;0.20;;;;;;;;;;5033196;28;20044;-71
2023/08/27 01:14:03;;;;;;;0.50;0.50;;;;;;;;;;5015249;28;20473;-71
2023/08/27 01:16:29;;;;;;;0.20;0.20;;;;;;;;;;5032845;28;20044;-72
2023/08/27 01:18:59;;;;;;;0.20;0.20;;;;;;;;;;5032606;28;20029;-71
2023/08/27 01:21:25;;;;;;;0.20;0.20;;;;;;;;;;4998782;28;20060;-71
2023/08/27 01:23:51;;;;;;;0.20;0.20;;;;;;;;;;5014978;28;20037;-70
2023/08/27 01:26:20;;;;;;;0.20;0.20;;;;;;;;;;5032602;28;20030;-70
2023/08/27 01:28:46;;;;;;;;;;;;;;;;;;5033363;28;20038;-70
2023/08/27 01:31:15;;;;;;;0.20;0.20;;;;;;;;;;5014966;28;20410;-69
2023/08/27 01:33:40;;;;;;;0.20;0.20;;;;;;;;;;5032315;28;20068;-70
2023/08/27 01:36:09;;;;;;;0.20;0.20;;;;;;;;;;4998853;28;20033;-71
2023/08/27 01:38:35;;;;;;;0.20;0.20;;;;;;;;;;5015163;28;20404;-71
2023/08/27 01:41:00;;;;;;;0.20;0.20;;;;;;;;;;5014739;28;20037;-71
2023/08/27 01:43:28;;;;;;;0.20;0.20;;;;;;;;;;5015066;28;20041;-71
2023/08/27 01:45:54;;;;;;;0.20;0.20;;;;;;;;;;5014724;28;20037;-71
2023/08/27 01:48:20;;;;;;;0.30;0.30;;;;;;;;;;5032421;28;20041;-70
2023/08/27 01:50:47;;;;;;;0.15;0.15;;;;;;;;;;5032439;28;20084;-70
2023/08/27 01:53:13;;;;;;;0.20;0.20;;;;;;;;;;5014712;28;20073;-70
2023/08/27 01:55:40;;;;;;;0.52;0.52;;;;;;;;;;5032546;28;20068;-70
2023/08/27 01:58:06;;;;;;;0.90;0.65;;;;;;;;;;5032812;28;20084;-69
2023/08/27 02:00:32;;;;;;;1.25;1.15;;;;;;;;;;5001730;28;20084;-71
2023/08/27 02:02:58;;;;;;;0.20;0.20;;;;;;;;;;5035723;28;20432;-71
2023/08/27 02:05:24;;;;;;;1.58;1.48;;;;;;;;;;5001813;28;20034;-71
2023/08/27 02:07:50;;;;;;;0.20;0.20;;;;;;;;;;5018124;28;20466;-71
2023/08/27 02:10:15;;;;;;;0.20;0.20;;;;;;;;;;5017881;28;20468;-71
2023/08/27 02:12:41;;;;;;;0.20;0.20;;;;;;;;;;5017746;28;20037;-71
2023/08/27 02:15:07;;;;;;;0.20;0.20;;;;;;;;;;5035506;28;20026;-71
2023/08/27 02:17:33;;;;;;;0.10;0.10;;;;;;;;;;5017386;28;20469;-71
2023/08/27 02:19:59;;;;;;;0.20;0.20;;;;;;;;;;5035546;28;20453;-71
2023/08/27 02:22:24;;;;;;;0.20;0.20;;;;;;;;;;5017810;28;20112;-71
2023/08/27 02:24:50;;;;;;;0.52;0.52;;;;;;;;;;5035566;28;20044;-71
2023/08/27 02:27:16;;;;;;;0.20;0.20;;;;;;;;;;5035453;28;20044;-70
2023/08/27 02:29:41;;;;;;;0.82;0.82;;;;;;;;;;5034084;28;20454;-72
2023/08/27 02:32:07;;;;;;;0.20;0.20;;;;;;;;;;5034289;28;20034;-71
2023/08/27 02:34:32;;;;;;;0.20;0.20;;;;;;;;;;5017848;28;20067;-71
2023/08/27 02:36:58;;;;;;;0.13;0.13;;;;;;;;;;5035396;28;20615;-73
2023/08/27 02:39:25;;;;;;;0.20;0.20;;;;;;;;;;5035305;28;20045;-72
2023/08/27 02:41:50;;;;;;;0.30;0.30;;;;;;;;;;5035350;28;20029;-72
2023/08/27 02:44:17;;;;;;;0.20;0.20;;;;;;;;;;5033599;28;20868;-71
2023/08/27 02:46:42;;;;;;;0.20;0.20;;;;;;;;;;5016322;28;20044;-72
2023/08/27 02:49:08;;;;;;;0.20;0.20;;;;;;;;;;4998042;28;20045;-71
2023/08/27 02:51:34;;;;;;;0.20;0.20;;;;;;;;;;5015578;28;20124;-72
2023/08/27 02:53:59;;;;;;;0.20;0.20;;;;;;;;;;5015349;28;20504;-71
2023/08/27 02:56:25;;;;;;;0.22;0.22;;;;;;;;;;5015128;28;20033;-73
2023/08/27 02:58:50;;;;;;;0.55;0.55;;;;;;;;;;4997518;28;20037;-72
2023/08/27 03:01:18;;;;;;;1.65;1.35;;;;;;;;;;4997596;28;20029;-71
2023/08/27 03:03:45;;;;;;;0.28;0.28;;;;;;;;;;4989751;28;20128;-73
2023/08/27 03:06:10;;;;;;;0.20;0.20;;;;;;;;;;5012558;28;20033;-73
2023/08/27 03:08:36;;;;;;;0.40;0.40;;;;;;;;;;5030712;28;20032;-72
2023/08/27 03:11:02;;;;;;;0.20;0.20;;;;;;;;;;5012753;28;20050;-74
2023/08/27 03:13:29;;;;;;;0.40;0.40;;;;;;;;;;5030421;28;20045;-72
2023/08/27 03:15:55;;;;;;;1.00;1.00;;;;;;;;;;5028536;28;20029;-73
2023/08/27 03:18:21;;;;;;;0.28;0.28;;;;;;;;;;5031058;28;20428;-71
2023/08/27 03:20:47;;;;;;;0.20;0.20;;;;;;;;;;5030600;28;20042;-72
2023/08/27 03:23:12;;;;;;;0.10;0.10;;;;;;;;;;5030727;28;20032;-71
2023/08/27 03:25:38;;;;;;;0.20;0.20;;;;;;;;;;5030378;28;20516;-70
2023/08/27 03:28:04;;;;;;;0.10;0.10;;;;;;;;;;5030163;28;20496;-72
2023/08/27 03:30:29;;;;;;;0.20;0.20;;;;;;;;;;5029310;28;20110;-70
2023/08/27 03:32:55;;;;;;;0.77;0.55;;;;;;;;;;5030353;28;20048;-70
2023/08/27 03:35:21;;;;;;;1.85;0.63;;;;;;;;;;5030788;28;20053;-71
2023/08/27 03:37:46;;;;;;;0.20;0.20;;;;;;;;;;5012772;28;20064;-70
2023/08/27 03:40:12;;;;;;;0.20;0.20;;;;;;;;;;5011927;28;20037;-70
2023/08/27 03:42:38;;;;;;;0.20;0.20;;;;;;;;;;5029971;28;20037;-71
2023/08/27 03:45:04;;;;;;;0.20;0.20;;;;;;;;;;5012519;28;20611;-75
2023/08/27 03:47:30;;;;;;;0.20;0.20;;;;;;;;;;5030058;28;20370;-74
2023/08/27 03:49:56;;;;;;;0.20;0.20;;;;;;;;;;5028608;28;20045;-72
2023/08/27 03:52:22;;;;;;;0.13;0.13;;;;;;;;;;4997114;28;20485;-71
2023/08/27 03:54:49;;;;;;;0.30;0.30;;;;;;;;;;5013341;28;20048;-71
2023/08/27 03:57:15;;;;;;;0.20;0.20;;;;;;;;;;5013994;28;20037;-73
2023/08/27 03:59:40;;;;;;;0.20;0.20;;;;;;;;;;5030602;28;20041;-71
2023/08/27 04:02:07;;;;;;;0.10;0.10;;;;;;;;;;5028521;28;20037;-71
2023/08/27 04:04:33;;;;;;;0.20;0.20;;;;;;;;;;4995722;28;20042;-71
2023/08/27 04:06:59;;;;;;;0.20;0.20;;;;;;;;;;5029558;28;20140;-72
2023/08/27 04:09:24;;;;;;;0.20;0.20;;;;;;;;;;5029452;28;20463;-72
2023/08/27 04:11:50;;;;;;;0.28;0.28;;;;;;;;;;5028720;28;20459;-70
2023/08/27 04:14:16;;;;;;;0.45;0.45;;;;;;;;;;5029425;28;20043;-71
2023/08/27 04:16:42;;;;;;;0.20;0.20;;;;;;;;;;5029559;28;20098;-71
2023/08/27 04:19:08;;;;;;;0.20;0.20;;;;;;;;;;5029109;28;20042;-73
2023/08/27 04:21:33;;;;;;;0.15;0.15;;;;;;;;;;5010211;28;20041;-71
2023/08/27 04:23:59;;;;;;;0.10;0.10;;;;;;;;;;5029280;28;20099;-72
2023/08/27 04:26:25;;;;;;;0.20;0.20;;;;;;;;;;5028017;28;20124;-71
2023/08/27 04:28:51;;;;;;;0.20;0.20;;;;;;;;;;5011516;28;20099;-71
2023/08/27 04:31:17;;;;;;;0.20;0.20;;;;;;;;;;5011848;28;20037;-71
2023/08/27 04:33:43;;;;;;;0.30;0.30;;;;;;;;;;5029413;28;20473;-70
2023/08/27 04:36:09;;;;;;;0.10;0.10;;;;;;;;;;5029360;28;20472;-70
2023/08/27 04:38:34;;;;;;;0.20;0.20;;;;;;;;;;5011675;28;20029;-72
2023/08/27 04:41:01;;;;;;;0.20;0.20;;;;;;;;;;5011842;28;20225;-70
2023/08/27 04:43:26;;;;;;;0.20;0.20;;;;;;;;;;5029250;28;20489;-76
2023/08/27 04:45:53;;;;;;;0.13;0.13;;;;;;;;;;5027598;28;20029;-70
2023/08/27 04:48:18;;;;;;;0.20;0.20;;;;;;;;;;5029215;28;20037;-71
2023/08/27 04:50:45;;;;;;;0.30;0.30;;;;;;;;;;5028849;28;20046;-72
2023/08/27 04:53:10;;;;;;;0.30;0.30;;;;;;;;;;5011367;28;20409;-71
2023/08/27 04:55:36;;;;;;;0.20;0.20;;;;;;;;;;5010674;28;20041;-70
2023/08/27 04:58:04;;;;;;;0.20;0.20;;;;;;;;;;5028778;28;20022;-71
2023/08/27 05:00:30;;;;;;;0.20;0.20;;;;;;;;;;5026992;28;20112;-72
2023/08/27 05:02:55;;;;;;;1.23;1.13;;;;;;;;;;5009562;28;20041;-71
2023/08/27 05:05:23;;;;;;;0.20;0.20;;;;;;;;;;5027936;28;20384;-73
2023/08/27 05:07:49;;;;;;;0.40;0.40;;;;;;;;;;5010641;28;20541;-71
2023/08/27 05:10:15;;;;;;;0.30;0.30;;;;;;;;;;5029026;28;20125;-71
2023/08/27 05:12:41;;;;;;;3.00;2.83;;;;;;;;;;5011261;28;20473;-71
2023/08/27 05:15:08;;;;;;;0.30;0.30;;;;;;;;;;5011162;28;20037;-71
2023/08/27 05:17:34;;;;;;;0.40;0.40;;;;;;;;;;5027763;28;20042;-71
2023/08/27 05:19:59;;;;;;;0.20;0.20;;;;;;;;;;5028651;28;20539;-76
2023/08/27 05:22:25;;;;;;;0.20;0.20;;;;;;;;;;5011120;28;20046;-72
2023/08/27 05:24:51;;;;;;;0.40;0.40;;;;;;;;;;5027451;28;20030;-72
2023/08/27 05:27:16;;;;;;;2.05;1.92;;;;;;;;;;5026089;28;20038;-74
2023/08/27 05:29:42;;;;;;;1.80;1.65;;;;;;;;;;5028987;28;20100;-74
2023/08/27 05:32:08;;;;;;;0.20;0.20;;;;;;;;;;5028041;28;20045;-75
2023/08/27 05:34:35;;;;;;;0.55;0.55;;;;;;;;;;4984434;28;20076;-74
2023/08/27 05:37:02;;;;;;;0.20;0.20;;;;;;;;;;4991670;28;20030;-74
2023/08/27 05:39:30;;;;;;;0.35;0.35;;;;;;;;;;4993128;28;20045;-74
2023/08/27 05:41:55;;;;;;;0.20;0.20;;;;;;;;;;5028545;28;20146;-73
2023/08/27 05:44:21;;;;;;;0.20;0.20;;;;;;;;;;5028061;28;20033;-75
2023/08/27 05:46:47;;;;;;;0.20;0.20;;;;;;;;;;5028458;28;20026;-74
2023/08/27 05:49:12;;;;;;;0.28;0.28;;;;;;;;;;5010937;28;20029;-73
2023/08/27 05:51:38;;;;;;;0.30;0.30;;;;;;;;;;5009511;28;20136;-75
2023/08/27 05:54:04;;;;;;;0.30;0.30;;;;;;;;;;5010294;28;20128;-74
2023/08/27 05:56:30;;;;;;;0.32;0.32;;;;;;;;;;5009109;28;20052;-72
2023/08/27 05:58:57;;;;;;;0.73;0.73;;;;;;;;;;5027604;28;20484;-73
2023/08/27 06:01:24;;;;;;;0.20;0.20;;;;;;;;;;5018031;28;20033;-74
2023/08/27 06:03:49;;;;;;;0.20;0.20;;;;;;;;;;4976822;28;20037;-74
2023/08/27 06:06:16;;;;;;;0.10;0.10;;;;;;;;;;5007156;28;20367;-73
2023/08/27 06:08:41;;;;;;;0.50;0.50;;;;;;;;;;4990931;28;20030;-75
2023/08/27 06:11:08;;;;;;;0.20;0.20;;;;;;;;;;5021507;28;20080;-72
2023/08/27 06:13:33;;;;;;;0.30;0.30;;;;;;;;;;4993274;28;20044;-72
2023/08/27 06:15:59;;;;;;;0.57;0.57;;;;;;;;;;5027756;28;20045;-72
2023/08/27 06:18:24;;;;;;;0.57;0.57;;;;;;;;;;5010393;28;20065;-73
2023/08/27 06:20:50;;;;;;;0.80;0.80;;;;;;;;;;5027839;28;20042;-72
2023/08/27 06:23:16;;;;;;;0.68;0.68;;;;;;;;;;5028015;28;20075;-72
2023/08/27 06:25:42;;;;;;;0.20;0.20;;;;;;;;;;4992175;28;20477;-71
2023/08/27 06:28:08;;;;;;;0.95;0.40;;;;;;;;;;5010230;28;20056;-73
2023/08/27 06:30:34;;;;;;;0.45;0.45;;;;;;;;;;5009786;28;20144;-75
2023/08/27 06:33:03;;;;;;;1.05;0.98;;;;;;;;;;4987729;28;20406;-73
2023/08/27 06:35:29;;;;;;;0.77;0.77;;;;;;;;;;4992419;28;20765;-74
2023/08/27 06:37:55;;;;;;;2.50;1.95;;;;;;;;;;5026471;28;20041;-72
2023/08/27 06:40:20;;;;;;;0.20;0.20;;;;;;;;;;5026453;28;20041;-73
2023/08/27 06:42:46;;;;;;;0.20;0.20;;;;;;;;;;5027645;28;20124;-73
2023/08/27 06:45:16;;;;;;;2.08;0.43;;;;;;;;;;5027503;28;20041;-74
2023/08/27 06:47:43;;;;;;;0.85;0.75;;;;;;;;;;5030670;28;20052;-72
2023/08/27 06:50:09;;;;;;;2.47;1.85;;;;;;;;;;4997126;28;20037;-72
2023/08/27 06:52:35;;;;;;;0.98;0.93;;;;;;;;;;5030981;28;20046;-73
2023/08/27 06:55:01;;;;;;;5.93;3.20;;;;;;;;;;4995666;28;20396;-72
2023/08/27 06:57:28;;;;;;;0.22;0.22;;;;;;;;;;4982878;28;20048;-74
2023/08/27 06:59:54;;;;;;;1.13;0.55;;;;;;;;;;5012645;28;20556;-76
2023/08/27 07:02:19;;;;;;;4.38;1.85;;;;;;;;;;5036680;28;20112;-74
2023/08/27 07:04:47;;;;;;;2.08;1.42;;;;;;;;;;5030272;28;20025;-73
2023/08/27 07:07:13;;;;;;;3.25;2.00;;;;;;;;;;4994801;28;20025;-73
2023/08/27 07:09:38;;;;;;;0.30;0.30;;;;;;;;;;5029997;28;20033;-72
2023/08/27 07:12:05;;;;;;;2.00;1.90;;;;;;;;;;5029000;28;20048;-73
2023/08/27 07:14:31;;;;;;;2.00;1.38;;;;;;;;;;5011089;28;20501;-73
2023/08/27 07:16:57;;;;;;;1.23;1.13;;;;;;;;;;5028328;28;20124;-73
2023/08/27 07:19:23;;;;;;;0.57;0.57;;;;;;;;;;5010776;28;20481;-73
2023/08/27 07:21:49;;;;;;;0.30;0.30;;;;;;;;;;5009453;28;20041;-72
2023/08/27 07:24:14;;;;;;;1.52;1.42;;;;;;;;;;5029588;28;20224;-72
2023/08/27 07:26:40;;;;;;;0.50;0.50;;;;;;;;;;5012134;28;20030;-72
2023/08/27 07:29:08;;;;;;;3.00;2.38;;;;;;;;;;5012268;28;20033;-72
2023/08/27 07:31:34;;;;;;;0.68;0.68;;;;;;;;;;4995779;28;20040;-73
2023/08/27 07:34:00;;;;;;;1.10;1.00;;;;;;;;;;5030015;28;20025;-74
2023/08/27 07:36:26;;;;;;;0.55;0.55;;;;;;;;;;5030313;28;20500;-73
2023/08/27 07:38:53;;;;;;;0.40;0.40;;;;;;;;;;5012615;28;20124;-74
2023/08/27 07:41:20;;;;;;;0.80;0.80;;;;;;;;;;5030516;28;20048;-73
2023/08/27 07:43:45;;;;;;;1.42;1.33;;;;;;;;;;5012491;28;20194;-73
2023/08/27 07:46:11;;;;;;;1.85;1.73;;;;;;;;;;5012137;28;20160;-73
2023/08/27 07:48:37;;;;;;;5.75;4.22;;;;;;;;;;5029791;28;20037;-75
2023/08/27 07:51:02;;;;;;;2.72;2.20;;;;;;;;;;5029931;28;20069;-73
2023/08/27 07:53:29;;;;;;;10.07;5.57;;;;;;;;;;5012288;28;20025;-74
2023/08/27 07:55:55;;;;;;;2.85;2.38;;;;;;;;;;5011859;28;20088;-75
2023/08/27 07:58:21;;;;;;;7.63;5.93;;;;;;;;;;5012167;28;20017;-73
2023/08/27 08:00:47;;;;;;;1.45;1.35;;;;;;;;;;5029673;28;20053;-73
2023/08/27 08:03:13;;;;;;;0.57;0.57;;;;;;;;;;5029587;28;20087;-75
2023/08/27 08:05:39;;;;;;;0.52;0.52;;;;;;;;;;5030222;28;20017;-74
2023/08/27 08:08:05;;;;;;;1.42;1.33;;;;;;;;;;5012133;28;20357;-75
2023/08/27 08:10:31;;;;;;;0.95;0.95;;;;;;;;;;4995917;28;20044;-74
2023/08/27 08:12:56;;;;;;;1.10;1.10;;;;;;;;;;5029784;28;20037;-74
2023/08/27 08:15:22;;;;;;;1.48;1.38;;;;;;;;;;5029606;28;20033;-72
2023/08/27 08:17:47;;;;;;;4.05;2.47;;;;;;;;;;5029408;28;20037;-72
2023/08/27 08:20:13;;;;;;;1.83;1.73;;;;;;;;;;5012075;28;20056;-72
2023/08/27 08:22:39;;;;;;;2.53;2.30;;;;;;;;;;5029562;28;20017;-74
2023/08/27 08:25:06;;;;;;;6.00;5.40;;;;;;;;;;4995696;28;20037;-74
2023/08/27 08:27:33;;;;;;;2.25;1.00;;;;;;;;;;4995506;28;20041;-72
2023/08/27 08:30:00;;;;;;;3.88;3.30;;;;;;;;;;5011511;28;20044;-75
2023/08/27 08:32:26;;;;;;;2.20;1.92;;;;;;;;;;4995224;28;20041;-74
2023/08/27 08:34:54;;;;;;;0.40;0.40;;;;;;;;;;5028690;28;20025;-73
2023/08/27 08:37:19;;;;;;;1.92;1.13;;;;;;;;;;4995533;28;20055;-73
2023/08/27 08:39:45;;;;;;;4.13;3.30;;;;;;;;;;5012028;28;20033;-73
2023/08/27 08:42:28;;;;;;;5.28;4.78;;;;;;;;;;5029106;28;20044;-72
2023/08/27 08:45:10;;;;;;;4.30;3.58;;;;;;;;;;4995393;28;20041;-73
2023/08/27 08:47:36;;;;;;;0.70;0.70;;;;;;;;;;5011496;28;20088;-74
2023/08/27 08:50:08;;;;;;;2.28;2.08;;;;;;;;;;5011453;28;20428;-74
2023/08/27 08:52:36;;;;;;;7.68;5.70;;;;;;;;;;5010223;28;20481;-73
2023/08/27 08:55:04;;;;;;;5.27;4.77;;;;;;;;;;4993581;28;20420;-73
2023/08/27 08:57:32;;;;;;;7.95;6.55;;;;;;;;;;5011695;28;20310;-73
2023/08/27 08:59:58;;;;;;;5.35;3.03;;;;;;;;;;4995544;28;20045;-72
2023/08/27 09:02:24;;;;;;;4.60;2.80;;;;;;;;;;4995540;28;20040;-74
2023/08/27 09:04:51;;;;;;;5.20;3.58;;;;;;;;;;4998823;28;20033;-74
2023/08/27 09:07:18;;;;;;;3.67;3.05;;;;;;;;;;5017950;28;20112;-73
2023/08/27 09:09:44;;;;;;;1.15;1.10;;;;;;;;;;5019262;28;20040;-72
2023/08/27 09:12:11;;;;;;;1.33;0.90;;;;;;;;;;5028418;28;20496;-72
2023/08/27 09:14:38;;;;;;;1.08;0.98;;;;;;;;;;4994906;28;20083;-72
2023/08/27 09:17:05;;;;;;;3.15;2.70;;;;;;;;;;4994936;28;20401;-73
2023/08/27 09:19:30;;;;;;;6.05;4.72;;;;;;;;;;4994458;28;20065;-74
2023/08/27 09:21:56;;;;;;;4.40;3.45;;;;;;;;;;5028630;28;20440;-73
2023/08/27 09:24:22;;;;;;;8.52;6.93;;;;;;;;;;5028383;28;20496;-73
2023/08/27 09:26:47;;;;;;;1.70;1.55;;;;;;;;;;5028563;28;20033;-73
2023/08/27 09:29:14;;;;;;;0.65;0.65;;;;;;;;;;5028897;28;20033;-72
2023/08/27 09:31:42;;;;;;;3.70;2.15;;;;;;;;;;4994359;28;20048;-73
2023/08/27 09:34:09;;;;;;;11.50;6.63;;;;;;;;;;5010803;28;20045;-73
2023/08/27 09:36:38;;;;;;;4.90;4.40;;;;;;;;;;4994662;28;20053;-72
2023/08/27 09:39:08;;;;;;;6.72;4.80;;;;;;;;;;4994251;28;20048;-75
2023/08/27 09:41:36;;;;;;;3.20;2.67;;;;;;;;;;4994449;28;20400;-72
2023/08/27 09:44:02;;;;;;;6.50;5.20;;;;;;;;;;5027942;28;20366;-73
2023/08/27 09:46:28;;;;;;;1.05;1.05;;;;;;;;;;4994491;28;20523;-73
2023/08/27 09:48:58;;;;;;;1.33;0.98;;;;;;;;;;5011070;28;20038;-74
2023/08/27 09:51:23;;;;;;;6.88;5.13;;;;;;;;;;4994480;28;20036;-73
2023/08/27 09:53:49;;;;;;;8.20;5.07;;;;;;;;;;5028216;28;20033;-73
2023/08/27 09:56:18;;;;;;;6.63;5.65;;;;;;;;;;5028392;28;20113;-73
2023/08/27 09:58:44;;;;;;;5.65;5.07;;;;;;;;;;4994271;28;20040;-73
2023/08/27 10:01:09;;;;;;;5.63;4.13;;;;;;;;;;5028336;28;20772;-75
2023/08/27 10:03:35;;;;;;;2.53;2.30;;;;;;;;;;5027891;28;20033;-74
2023/08/27 10:06:04;;;;;;;8.18;6.47;;;;;;;;;;5010423;28;20096;-74
2023/08/27 10:08:29;;;;;;;2.10;1.90;;;;;;;;;;4994515;28;20131;-73
2023/08/27 10:11:06;;;;;;;2.78;1.83;;;;;;;;;;5010348;28;20575;-74
2023/08/27 10:13:32;;;;;;;1.98;1.35;;;;;;;;;;4994059;28;20037;-73
2023/08/27 10:15:58;;;;;;;7.30;6.47;;;;;;;;;;4993962;28;20135;-73
2023/08/27 10:18:24;;;;;;;8.32;5.38;;;;;;;;;;5028010;28;20112;-74
2023/08/27 10:20:50;;;;;;;6.13;4.25;;;;;;;;;;5013546;28;20048;-75
2023/08/27 10:23:16;;;;;;;1.38;1.20;;;;;;;;;;4997315;28;20107;-73
2023/08/27 10:25:42;;;;;;;0.70;0.70;;;;;;;;;;5013514;28;20096;-73
2023/08/27 10:28:09;;;;;;;8.77;6.18;;;;;;;;;;5031139;28;20041;-72
2023/08/27 10:30:36;;;;;;;4.18;3.38;;;;;;;;;;4997261;28;20033;-73
2023/08/27 10:33:02;;;;;;;5.65;3.35;;;;;;;;;;5013306;28;20052;-74
2023/08/27 10:35:28;;;;;;;2.58;2.33;;;;;;;;;;4997680;28;20038;-74
2023/08/27 10:37:55;;;;;;;9.27;5.90;;;;;;;;;;5013180;28;20401;-72
2023/08/27 10:40:24;;;;;;;10.27;6.95;;;;;;;;;;4997155;28;20037;-74
2023/08/27 10:42:49;;;;;;;1.27;1.00;;;;;;;;;;5012979;28;20029;-74
2023/08/27 10:45:17;;;;;;;5.30;3.42;;;;;;;;;;5013183;28;20043;-74
2023/08/27 10:48:04;;;;;;;6.40;4.53;;;;;;;;;;5013723;28;20080;-73
2023/08/27 10:50:50;;;;;;;4.50;3.70;;;;;;;;;;5031237;28;20049;-73
2023/08/27 10:53:16;;;;;;;4.30;3.78;;;;;;;;;;4996787;28;20037;-74
2023/08/27 10:55:48;;;;;;;7.38;4.28;;;;;;;;;;5030967;28;20027;-73
2023/08/27 10:58:17;;;;;;;1.27;1.08;;;;;;;;;;5013204;28;20068;-73
2023/08/27 11:01:03;;;;;;;4.28;3.35;;;;;;;;;;4996672;28;20041;-72
2023/08/27 11:03:47;;;;;;;8.20;5.63;;;;;;;;;;5030800;28;20068;-72
2023/08/27 11:06:13;;;;;;;3.92;2.30;;;;;;;;;;5012898;28;20513;-72
2023/08/27 11:08:40;;;;;;;3.80;2.45;;;;;;;;;;4996744;28;20044;-72
2023/08/27 11:11:15;;;;;;;15.48;5.20;;;;;;;;;;5005509;28;20037;-73
2023/08/27 11:13:47;;;;;;;3.97;3.10;;;;;;;;;;5009221;28;20037;-72
2023/08/27 11:16:14;;;;;;;11.85;3.20;;;;;;;;;;5016625;28;20041;-73
2023/08/27 11:18:44;;;;;;;2.75;2.00;;;;;;;;;;4995936;28;20120;-73
2023/08/27 11:21:25;;;;;;;7.32;5.60;;;;;;;;;;5004741;28;20044;-74
2023/08/27 11:24:09;;;;;;;4.47;3.03;;;;;;;;;;4996472;28;20033;-72
2023/08/27 11:26:35;;;;;;;3.28;2.95;;;;;;;;;;5028905;28;20033;-75
2023/08/27 11:29:03;;;;;;;4.57;2.78;;;;;;;;;;4993881;28;20381;-74
2023/08/27 11:31:32;;;;;;;7.22;4.53;;;;;;;;;;4991682;28;20026;-74
2023/08/27 11:33:58;;;;;;;4.03;2.78;;;;;;;;;;5019897;28;20048;-75
2023/08/27 11:36:23;;;;;;;5.28;4.18;;;;;;;;;;5028112;28;20037;-73
2023/08/27 11:38:49;;;;;;;3.90;2.88;;;;;;;;;;5023313;28;20038;-74
2023/08/27 11:41:15;;;;;;;6.15;5.20;;;;;;;;;;5022548;28;20040;-74
2023/08/27 11:43:41;;;;;;;5.13;3.40;;;;;;;;;;5012499;28;20022;-74
2023/08/27 11:46:22;;;;;;;8.15;5.43;;;;;;;;;;5030359;28;20505;-73
2023/08/27 11:48:48;;;;;;;2.65;1.95;;;;;;;;;;5030574;28;20108;-74
2023/08/27 11:51:14;;;;;;;3.00;1.88;;;;;;;;;;4994892;28;20117;-73
2023/08/27 11:53:44;;;;;;;1.40;1.27;;;;;;;;;;5004007;28;20042;-73
2023/08/27 11:56:11;;;;;;;7.07;3.20;;;;;;;;;;4992696;28;20041;-73
2023/08/27 11:58:39;;;;;;;3.10;1.67;;;;;;;;;;5010633;28;20500;-73
2023/08/27 12:01:06;;;;;;;8.15;4.00;;;;;;;;;;4976355;28;20068;-72
2023/08/27 12:03:33;;;;;;;6.53;3.08;;;;;;;;;;4992889;28;20038;-72
2023/08/27 12:05:59;;;;;;;3.22;2.05;;;;;;;;;;5010218;28;20033;-73
2023/08/27 12:08:24;;;;;;;1.63;1.52;;;;;;;;;;5019629;28;20044;-72
2023/08/27 12:10:51;;;;;;;2.90;2.45;;;;;;;;;;5029133;28;20271;-72
2023/08/27 12:13:17;;;;;;;3.20;2.05;;;;;;;;;;5012145;28;20048;-73
2023/08/27 12:15:42;;;;;;;3.75;3.33;;;;;;;;;;5012065;28;20041;-72
2023/08/27 12:18:08;;;;;;;8.45;6.13;;;;;;;;;;5012299;28;20039;-73
2023/08/27 12:20:36;;;;;;;2.25;1.70;;;;;;;;;;5012377;28;20052;-73
2023/08/27 12:23:14;;;;;;;2.40;1.90;;;;;;;;;;5011491;28;20061;-72
2023/08/27 12:25:46;;;;;;;3.95;3.17;;;;;;;;;;5028394;28;20116;-73
2023/08/27 12:28:12;;;;;;;3.70;2.72;;;;;;;;;;5013744;28;20037;-72
2023/08/27 12:30:42;;;;;;;8.88;5.15;;;;;;;;;;5009917;28;20049;-71
2023/08/27 12:33:08;;;;;;;1.30;1.05;;;;;;;;;;5009830;28;20132;-72
2023/08/27 12:35:34;;;;;;;5.25;3.28;;;;;;;;;;5009574;28;20053;-73
2023/08/27 12:37:59;;;;;;;3.50;2.83;;;;;;;;;;5009601;28;20220;-72
2023/08/27 12:40:25;;;;;;;13.85;5.45;;;;;;;;;;4992302;28;20519;-73
2023/08/27 12:42:51;;;;;;;4.22;3.78;;;;;;;;;;5014865;28;20026;-73
2023/08/27 12:45:16;;;;;;;4.10;2.95;;;;;;;;;;5027594;28;20041;-72
2023/08/27 12:47:42;;;;;;;4.30;3.22;;;;;;;;;;5011146;28;20108;-74
2023/08/27 12:50:08;;;;;;;8.35;3.55;;;;;;;;;;5028331;28;20045;-73
2023/08/27 12:52:34;;;;;;;3.10;2.53;;;;;;;;;;5027982;28;20029;-72
2023/08/27 12:55:00;;;;;;;3.40;2.47;;;;;;;;;;5029234;28;20103;-72
2023/08/27 12:57:26;;;;;;;2.90;2.53;;;;;;;;;;5027561;28;20030;-72
2023/08/27 12:59:51;;;;;;;0.90;0.90;;;;;;;;;;5028431;28;20389;-72
2023/08/27 13:02:17;;;;;;;4.50;2.92;;;;;;;;;;5029124;28;20078;-73
2023/08/27 13:04:42;;;;;;;4.82;4.32;;;;;;;;;;5028900;28;20040;-74
2023/08/27 13:07:08;;;;;;;5.03;3.80;;;;;;;;;;5021074;28;20040;-72
2023/08/27 13:09:34;;;;;;;3.40;2.53;;;;;;;;;;5017716;28;20065;-73
2023/08/27 13:11:59;;;;;;;5.07;4.10;;;;;;;;;;5037769;28;20036;-73
2023/08/27 13:14:25;;;;;;;2.85;2.05;;;;;;;;;;5028380;28;20386;-73
2023/08/27 13:16:51;;;;;;;6.30;3.75;;;;;;;;;;5027901;28;20045;-73
2023/08/27 13:19:16;;;;;;;7.07;5.93;;;;;;;;;;5026555;28;20393;-73
2023/08/27 13:21:45;;;;;;;7.00;4.82;;;;;;;;;;5027080;28;20373;-73
2023/08/27 13:24:11;;;;;;;3.47;3.17;;;;;;;;;;4993640;28;21016;-72
2023/08/27 13:26:36;;;;;;;10.80;3.58;;;;;;;;;;4993002;28;20038;-72
2023/08/27 13:29:02;;;;;;;6.07;4.70;;;;;;;;;;5026882;28;20072;-72
2023/08/27 13:31:28;;;;;;;9.23;5.90;;;;;;;;;;5026551;28;20670;-72
2023/08/27 13:33:54;;;;;;;2.88;1.55;;;;;;;;;;5008625;28;20086;-70
2023/08/27 13:36:19;;;;;;;6.55;5.35;;;;;;;;;;4993762;28;20473;-72
2023/08/27 13:38:45;;;;;;;4.50;3.35;;;;;;;;;;5027533;28;20025;-71
2023/08/27 13:41:10;;;;;;;6.78;5.03;;;;;;;;;;5028572;28;20037;-70
2023/08/27 13:43:35;;;;;;;7.35;4.75;;;;;;;;;;5010885;28;20128;-70
2023/08/27 13:46:01;;;;;;;4.78;2.80;;;;;;;;;;5028359;28;20040;-70
2023/08/27 13:48:27;;;;;;;6.40;3.70;;;;;;;;;;5010932;28;20493;-71
2023/08/27 13:50:53;;;;;;;6.55;4.38;;;;;;;;;;5028512;28;20037;-71
2023/08/27 13:53:20;;;;;;;7.78;3.33;;;;;;;;;;5029396;28;20087;-71
2023/08/27 13:55:45;;;;;;;1.27;1.17;;;;;;;;;;5046928;28;20033;-70
2023/08/27 13:58:12;;;;;;;1.42;1.15;;;;;;;;;;5035152;28;20053;-71
2023/08/27 14:00:37;;;;;;;4.55;3.90;;;;;;;;;;5013391;28;20477;-71
2023/08/27 14:03:03;;;;;;;6.00;4.28;;;;;;;;;;5031681;28;20022;-70
2023/08/27 14:05:28;;;;;;;8.13;6.00;;;;;;;;;;5031549;28;20500;-71
2023/08/27 14:07:54;;;;;;;4.30;3.65;;;;;;;;;;5033222;28;20626;-71
2023/08/27 14:10:20;;;;;;;4.38;3.95;;;;;;;;;;5038926;28;20452;-70
2023/08/27 14:12:46;;;;;;;2.53;2.13;;;;;;;;;;5037468;28;20045;-73
2023/08/27 14:15:12;;;;;;;3.67;3.13;;;;;;;;;;5032131;28;20040;-73
2023/08/27 14:17:37;;;;;;;4.75;3.88;;;;;;;;;;5031108;28;20389;-70
2023/08/27 14:20:03;;;;;;;10.35;3.90;;;;;;;;;;5031003;28;20049;-72
2023/08/27 14:22:28;;;;;;;4.05;3.20;;;;;;;;;;5031689;28;20032;-75
2023/08/27 14:24:54;;;;;;;7.50;6.13;;;;;;;;;;5032329;28;20088;-72
2023/08/27 14:27:20;;;;;;;7.65;6.35;;;;;;;;;;4998742;28;20029;-72
2023/08/27 14:29:46;;;;;;;7.07;3.28;;;;;;;;;;5031389;28;20469;-71
2023/08/27 14:32:12;;;;;;;8.43;6.38;;;;;;;;;;5031497;28;20116;-73
2023/08/27 14:34:37;;;;;;;2.35;2.05;;;;;;;;;;5031098;28;20060;-71
2023/08/27 14:37:03;;;;;;;3.17;2.88;;;;;;;;;;5031359;28;20037;-71
2023/08/27 14:39:29;;;;;;;8.18;5.55;;;;;;;;;;5031615;28;20492;-71